Homer, AK

3:28 PM AKST on March 03, 2015 (GMT -0900)
HADS BRADLEY R BL DAM NR HOMER AK USGS | Change Station
CLOSE
Current Station
Personal Weather Station
Location: English Bay, AK
Elevation: 1278 ft
Nearby Weather Stations

Elev 1278 ft 59.76 °N, 150.85 °W | Updated 1 hour ago

Overcast
Overcast
36.0 °F
Feels Like 36.0 °F
N
0.0
Wind Variable Wind from North

Today
High -- | Low -- °F
--% Chance of Precip.
Yesterday
High -- | Low -- °F
Precip. -- in
7:55 AM 6:36 PM
Waxing Gibbous, 97% visible
Pressure 29.99 in
Visibility 10.0 miles
Clouds Overcast 5500 ft
Dew Point Not available.
Humidity Not available.
Rainfall 0.00 in
Snow Depth Not available.
UV 1 out of 12
Pollen Not available.
Air Quality Not available.
Flu Activity Not available.
METAR PAHO 032353Z 26003KT 10SM OVC055 09/02 A2999 RMK SLP154 60001 T00890017 10094 20050 50002 VIA AUTODIAL

More Conditions Fewer Conditions

Pressure 29.99 in
Visibility 10.0 miles
Clouds Overcast 5500 ft
Dew Point Not available.
Humidity Not available.
Rainfall 0.00 in
Snow Depth Not available.
UV 1 out of 12
Pollen Not available.
Air Quality Not available.
Flu Activity Not available.
METAR PAHO 032353Z 26003KT 10SM OVC055 09/02 A2999 RMK SLP154 60001 T00890017 10094 20050 50002 VIA AUTODIAL

More Conditions Fewer Conditions

10-Day Weather Forecast

Almanac

Astronomy

Mar. 03, 2015 Rise Set
Actual Time
Civil Twilight
Nautical Twilight
Astronomical Twilight
Moon
Length of Visible Light
Length of Day
Tomorrow will be .
, % of the Moon is Illuminated

Today's Extremes

State Highs State Lows

Community

WunderPhotos

Upload Photos

1,802,340 photos uploaded!

WunderBlogs® & News

Nearby

Air Quality

  Air Quality AQ Index Pollutant
Not available.

Snow Depth

Station Depth Elevation

Earthquake Activity

City Distance Mag. Time & Date
Minimum magnitude displayed is 2.5.

Coastal Water Temperatures

Place Temperature

Nearby Weather Stations